sensor_id;sensor_type;location;lat;lon;timestamp;temperature;humidity
34153;DHT22;20426;48.372;10.888;2024-01-30T00:00:11;2.80;99.90
34153;DHT22;20426;48.372;10.888;2024-01-30T00:00:42;2.80;99.90
34153;DHT22;20426;48.372;10.888;2024-01-30T00:01:13;2.90;99.90
34153;DHT22;20426;48.372;10.888;2024-01-30T00:01:44;2.80;99.90
34153;DHT22;20426;48.372;10.888;2024-01-30T00:02:14;2.90;99.90
34153;DHT22;20426;48.372;10.888;2024-01-30T00:02:45;2.90;99.90
34153;DHT22;20426;48.372;10.888;2024-01-30T00:03:16;2.90;99.90
34153;DHT22;20426;48.372;10.888;2024-01-30T00:03:47;2.90;99.90
34153;DHT22;20426;48.372;10.888;2024-01-30T00:04:17;2.80;99.90
34153;DHT22;20426;48.372;10.888;2024-01-30T00:04:48;2.90;99.90
34153;DHT22;20426;48.372;10.888;2024-01-30T00:05:19;2.90;99.90
34153;DHT22;20426;48.372;10.888;2024-01-30T00:05:49;2.80;99.90
34153;DHT22;20426;48.372;10.888;2024-01-30T00:06:20;2.80;99.90
34153;DHT22;20426;48.372;10.888;2024-01-30T00:06:51;2.80;99.90
34153;DHT22;20426;48.372;10.888;2024-01-30T00:07:23;2.80;99.90
34153;DHT22;20426;48.372;10.888;2024-01-30T00:07:54;2.80;99.90
34153;DHT22;20426;48.372;10.888;2024-01-30T00:08:25;2.80;99.90
34153;DHT22;20426;48.372;10.888;2024-01-30T00:08:55;2.80;99.90
34153;DHT22;20426;48.372;10.888;2024-01-30T00:09:26;2.80;99.90
34153;DHT22;20426;48.372;10.888;2024-01-30T00:09:56;2.80;99.90
34153;DHT22;20426;48.372;10.888;2024-01-30T00:10:27;2.70;99.90
34153;DHT22;20426;48.372;10.888;2024-01-30T00:10:58;2.70;99.90
34153;DHT22;20426;48.372;10.888;2024-01-30T00:11:28;2.70;99.90
34153;DHT22;20426;48.372;10.888;2024-01-30T00:11:59;2.70;99.90
34153;DHT22;20426;48.372;10.888;2024-01-30T00:12:30;2.60;99.90
34153;DHT22;20426;48.372;10.888;2024-01-30T00:13:02;2.60;99.90
34153;DHT22;20426;48.372;10.888;2024-01-30T00:13:33;2.60;99.90
34153;DHT22;20426;48.372;10.888;2024-01-30T00:14:04;2.60;99.90
34153;DHT22;20426;48.372;10.888;2024-01-30T00:14:35;2.60;99.90
34153;DHT22;20426;48.372;10.888;2024-01-30T00:15:05;2.60;99.90
34153;DHT22;20426;48.372;10.888;2024-01-30T00:15:39;2.60;99.90
34153;DHT22;20426;48.372;10.888;2024-01-30T00:16:20;2.60;99.90
34153;DHT22;20426;48.372;10.888;2024-01-30T00:16:51;2.50;99.90
34153;DHT22;20426;48.372;10.888;2024-01-30T00:17:22;2.50;99.90
34153;DHT22;20426;48.372;10.888;2024-01-30T00:17:55;2.60;99.90
34153;DHT22;20426;48.372;10.888;2024-01-30T00:18:27;2.60;99.90
34153;DHT22;20426;48.372;10.888;2024-01-30T00:18:58;2.50;99.90
34153;DHT22;20426;48.372;10.888;2024-01-30T00:19:28;2.50;99.90
34153;DHT22;20426;48.372;10.888;2024-01-30T00:19:59;2.50;99.90
34153;DHT22;20426;48.372;10.888;2024-01-30T00:20:30;2.50;99.90
34153;DHT22;20426;48.372;10.888;2024-01-30T00:21:00;2.50;99.90
34153;DHT22;20426;48.372;10.888;2024-01-30T00:21:31;2.60;99.90
34153;DHT22;20426;48.372;10.888;2024-01-30T00:22:02;2.60;99.90
34153;DHT22;20426;48.372;10.888;2024-01-30T00:22:32;2.60;99.90
34153;DHT22;20426;48.372;10.888;2024-01-30T00:23:03;2.60;99.90
34153;DHT22;20426;48.372;10.888;2024-01-30T00:23:34;2.60;99.90
34153;DHT22;20426;48.372;10.888;2024-01-30T00:24:05;2.60;99.90
34153;DHT22;20426;48.372;10.888;2024-01-30T00:24:35;2.60;99.90
34153;DHT22;20426;48.372;10.888;2024-01-30T00:25:06;2.70;99.90
34153;DHT22;20426;48.372;10.888;2024-01-30T00:25:37;2.60;99.90
34153;DHT22;20426;48.372;10.888;2024-01-30T00:26:08;2.60;99.90
34153;DHT22;20426;48.372;10.888;2024-01-30T00:26:39;2.70;99.90
34153;DHT22;20426;48.372;10.888;2024-01-30T00:27:10;2.70;99.90
34153;DHT22;20426;48.372;10.888;2024-01-30T00:27:41;2.70;99.90
34153;DHT22;20426;48.372;10.888;2024-01-30T00:28:12;2.70;99.90
34153;DHT22;20426;48.372;10.888;2024-01-30T00:28:43;2.70;99.90
34153;DHT22;20426;48.372;10.888;2024-01-30T00:29:13;2.70;99.90
34153;DHT22;20426;48.372;10.888;2024-01-30T00:29:49;2.70;99.90
34153;DHT22;20426;48.372;10.888;2024-01-30T00:30:20;2.70;99.90
34153;DHT22;20426;48.372;10.888;2024-01-30T00:30:51;2.70;99.90
34153;DHT22;20426;48.372;10.888;2024-01-30T00:31:22;2.70;99.90
34153;DHT22;20426;48.372;10.888;2024-01-30T00:31:53;2.70;99.90
34153;DHT22;20426;48.372;10.888;2024-01-30T00:32:23;2.70;99.90
34153;DHT22;20426;48.372;10.888;2024-01-30T00:32:54;2.80;99.90
34153;DHT22;20426;48.372;10.888;2024-01-30T00:33:25;2.80;99.90
34153;DHT22;20426;48.372;10.888;2024-01-30T00:33:56;2.80;99.90
34153;DHT22;20426;48.372;10.888;2024-01-30T00:34:26;2.80;99.90
34153;DHT22;20426;48.372;10.888;2024-01-30T00:34:57;2.80;99.90
34153;DHT22;20426;48.372;10.888;2024-01-30T00:35:28;2.80;99.90
34153;DHT22;20426;48.372;10.888;2024-01-30T00:35:59;2.80;99.90
34153;DHT22;20426;48.372;10.888;2024-01-30T00:36:30;2.80;99.90
34153;DHT22;20426;48.372;10.888;2024-01-30T00:37:01;2.80;99.90
34153;DHT22;20426;48.372;10.888;2024-01-30T00:37:31;2.80;99.90
34153;DHT22;20426;48.372;10.888;2024-01-30T00:38:02;2.80;99.90
34153;DHT22;20426;48.372;10.888;2024-01-30T00:38:33;2.90;99.90
34153;DHT22;20426;48.372;10.888;2024-01-30T00:39:04;2.80;99.90
34153;DHT22;20426;48.372;10.888;2024-01-30T00:39:37;2.90;99.90
34153;DHT22;20426;48.372;10.888;2024-01-30T00:40:08;2.90;99.90
34153;DHT22;20426;48.372;10.888;2024-01-30T00:40:41;2.90;99.90
34153;DHT22;20426;48.372;10.888;2024-01-30T00:41:11;2.90;99.90
34153;DHT22;20426;48.372;10.888;2024-01-30T00:41:42;2.90;99.90
34153;DHT22;20426;48.372;10.888;2024-01-30T00:42:13;2.80;99.90
34153;DHT22;20426;48.372;10.888;2024-01-30T00:42:44;2.90;99.90
34153;DHT22;20426;48.372;10.888;2024-01-30T00:43:16;2.90;99.90
34153;DHT22;20426;48.372;10.888;2024-01-30T00:43:46;2.80;99.90
34153;DHT22;20426;48.372;10.888;2024-01-30T00:44:17;2.80;99.90
34153;DHT22;20426;48.372;10.888;2024-01-30T00:44:48;2.80;99.90
34153;DHT22;20426;48.372;10.888;2024-01-30T00:45:19;2.90;99.90
34153;DHT22;20426;48.372;10.888;2024-01-30T00:45:50;2.90;99.90
34153;DHT22;20426;48.372;10.888;2024-01-30T00:46:22;2.80;99.90
34153;DHT22;20426;48.372;10.888;2024-01-30T00:46:53;2.80;99.90
34153;DHT22;20426;48.372;10.888;2024-01-30T00:47:24;2.80;99.90
34153;DHT22;20426;48.372;10.888;2024-01-30T00:47:54;2.80;99.90
34153;DHT22;20426;48.372;10.888;2024-01-30T00:48:25;2.80;99.90
34153;DHT22;20426;48.372;10.888;2024-01-30T00:48:56;2.80;99.90
34153;DHT22;20426;48.372;10.888;2024-01-30T00:49:26;2.80;99.90
34153;DHT22;20426;48.372;10.888;2024-01-30T00:49:57;2.80;99.90
34153;DHT22;20426;48.372;10.888;2024-01-30T00:50:28;2.80;99.90
34153;DHT22;20426;48.372;10.888;2024-01-30T00:50:58;2.80;99.90
34153;DHT22;20426;48.372;10.888;2024-01-30T00:51:29;2.70;99.90
34153;DHT22;20426;48.372;10.888;2024-01-30T00:52:00;2.70;99.90
34153;DHT22;20426;48.372;10.888;2024-01-30T00:52:31;2.70;99.90
34153;DHT22;20426;48.372;10.888;2024-01-30T00:53:02;2.70;99.90
34153;DHT22;20426;48.372;10.888;2024-01-30T00:53:33;2.70;99.90
34153;DHT22;20426;48.372;10.888;2024-01-30T00:54:04;2.70;99.90
34153;DHT22;20426;48.372;10.888;2024-01-30T00:54:34;2.70;99.90
34153;DHT22;20426;48.372;10.888;2024-01-30T00:55:05;2.70;99.90
34153;DHT22;20426;48.372;10.888;2024-01-30T00:55:36;2.60;99.90
34153;DHT22;20426;48.372;10.888;2024-01-30T00:56:07;2.60;99.90
34153;DHT22;20426;48.372;10.888;2024-01-30T00:56:38;2.60;99.90
34153;DHT22;20426;48.372;10.888;2024-01-30T00:57:09;2.60;99.90
34153;DHT22;20426;48.372;10.888;2024-01-30T00:57:40;2.50;99.90
34153;DHT22;20426;48.372;10.888;2024-01-30T00:58:10;2.50;99.90
34153;DHT22;20426;48.372;10.888;2024-01-30T00:58:41;2.50;99.90
34153;DHT22;20426;48.372;10.888;2024-01-30T00:59:12;2.50;99.90
34153;DHT22;20426;48.372;10.888;2024-01-30T00:59:42;2.50;99.90
34153;DHT22;20426;48.372;10.888;2024-01-30T01:00:14;2.40;99.90
34153;DHT22;20426;48.372;10.888;2024-01-30T01:00:47;2.40;99.90
34153;DHT22;20426;48.372;10.888;2024-01-30T01:01:18;2.40;99.90
34153;DHT22;20426;48.372;10.888;2024-01-30T01:01:49;2.40;99.90
34153;DHT22;20426;48.372;10.888;2024-01-30T01:02:20;2.40;99.90
34153;DHT22;20426;48.372;10.888;2024-01-30T01:02:50;2.40;99.90
34153;DHT22;20426;48.372;10.888;2024-01-30T01:03:21;2.30;99.90
34153;DHT22;20426;48.372;10.888;2024-01-30T01:03:52;2.30;99.90
34153;DHT22;20426;48.372;10.888;2024-01-30T01:04:22;2.30;99.90
34153;DHT22;20426;48.372;10.888;2024-01-30T01:04:53;2.30;99.90
34153;DHT22;20426;48.372;10.888;2024-01-30T01:05:24;2.30;99.90
34153;DHT22;20426;48.372;10.888;2024-01-30T01:05:54;2.30;99.90
34153;DHT22;20426;48.372;10.888;2024-01-30T01:06:25;2.20;99.90
34153;DHT22;20426;48.372;10.888;2024-01-30T01:06:56;2.20;99.90
34153;DHT22;20426;48.372;10.888;2024-01-30T01:07:26;2.20;99.90
34153;DHT22;20426;48.372;10.888;2024-01-30T01:07:57;2.20;99.90
34153;DHT22;20426;48.372;10.888;2024-01-30T01:08:28;2.20;99.90
34153;DHT22;20426;48.372;10.888;2024-01-30T01:08:58;2.20;99.90
34153;DHT22;20426;48.372;10.888;2024-01-30T01:09:29;2.20;99.90
34153;DHT22;20426;48.372;10.888;2024-01-30T01:10:00;2.20;99.90
34153;DHT22;20426;48.372;10.888;2024-01-30T01:10:30;2.20;99.90
34153;DHT22;20426;48.372;10.888;2024-01-30T01:11:01;2.10;99.90
34153;DHT22;20426;48.372;10.888;2024-01-30T01:11:32;2.20;99.90
34153;DHT22;20426;48.372;10.888;2024-01-30T01:12:03;2.20;99.90
34153;DHT22;20426;48.372;10.888;2024-01-30T01:12:34;2.20;99.90
34153;DHT22;20426;48.372;10.888;2024-01-30T01:13:05;2.20;99.90
34153;DHT22;20426;48.372;10.888;2024-01-30T01:13:35;2.20;99.90
34153;DHT22;20426;48.372;10.888;2024-01-30T01:14:06;2.20;99.90
34153;DHT22;20426;48.372;10.888;2024-01-30T01:14:37;2.20;99.90
34153;DHT22;20426;48.372;10.888;2024-01-30T01:15:08;2.20;99.90
34153;DHT22;20426;48.372;10.888;2024-01-30T01:15:40;2.20;99.90
34153;DHT22;20426;48.372;10.888;2024-01-30T01:16:11;2.20;99.90
34153;DHT22;20426;48.372;10.888;2024-01-30T01:16:41;2.30;99.90
34153;DHT22;20426;48.372;10.888;2024-01-30T01:17:12;2.30;99.90
34153;DHT22;20426;48.372;10.888;2024-01-30T01:17:43;2.30;99.90
34153;DHT22;20426;48.372;10.888;2024-01-30T01:18:13;2.30;99.90
34153;DHT22;20426;48.372;10.888;2024-01-30T01:18:44;2.30;99.90
34153;DHT22;20426;48.372;10.888;2024-01-30T01:19:15;2.30;99.90
34153;DHT22;20426;48.372;10.888;2024-01-30T01:19:45;2.30;99.90
34153;DHT22;20426;48.372;10.888;2024-01-30T01:20:16;2.30;99.90
34153;DHT22;20426;48.372;10.888;2024-01-30T01:20:47;2.40;99.90
34153;DHT22;20426;48.372;10.888;2024-01-30T01:21:17;2.40;99.90
34153;DHT22;20426;48.372;10.888;2024-01-30T01:21:48;2.40;99.90
34153;DHT22;20426;48.372;10.888;2024-01-30T01:22:19;2.40;99.90
34153;DHT22;20426;48.372;10.888;2024-01-30T01:22:49;2.40;99.90
34153;DHT22;20426;48.372;10.888;2024-01-30T01:23:20;2.40;99.90
34153;DHT22;20426;48.372;10.888;2024-01-30T01:23:51;2.40;99.90
34153;DHT22;20426;48.372;10.888;2024-01-30T01:24:21;2.40;99.90
34153;DHT22;20426;48.372;10.888;2024-01-30T01:24:52;2.40;99.90
34153;DHT22;20426;48.372;10.888;2024-01-30T01:25:23;2.50;99.90
34153;DHT22;20426;48.372;10.888;2024-01-30T01:25:54;2.40;99.90
34153;DHT22;20426;48.372;10.888;2024-01-30T01:26:25;2.40;99.90
34153;DHT22;20426;48.372;10.888;2024-01-30T01:26:56;2.40;99.90
34153;DHT22;20426;48.372;10.888;2024-01-30T01:27:27;2.40;99.90
34153;DHT22;20426;48.372;10.888;2024-01-30T01:27:58;2.40;99.90
34153;DHT22;20426;48.372;10.888;2024-01-30T01:28:31;2.40;99.90
34153;DHT22;20426;48.372;10.888;2024-01-30T01:29:02;2.40;99.90
34153;DHT22;20426;48.372;10.888;2024-01-30T01:29:34;2.30;99.90
34153;DHT22;20426;48.372;10.888;2024-01-30T01:30:07;2.30;99.90
34153;DHT22;20426;48.372;10.888;2024-01-30T01:30:39;2.30;99.90
34153;DHT22;20426;48.372;10.888;2024-01-30T01:31:10;2.30;99.90
34153;DHT22;20426;48.372;10.888;2024-01-30T01:31:40;2.30;99.90
34153;DHT22;20426;48.372;10.888;2024-01-30T01:32:14;2.20;99.90
34153;DHT22;20426;48.372;10.888;2024-01-30T01:32:45;2.20;99.90
34153;DHT22;20426;48.372;10.888;2024-01-30T01:33:21;2.20;99.90
34153;DHT22;20426;48.372;10.888;2024-01-30T01:33:51;2.20;99.90
34153;DHT22;20426;48.372;10.888;2024-01-30T01:34:22;2.20;99.90
34153;DHT22;20426;48.372;10.888;2024-01-30T01:34:56;2.20;99.90
34153;DHT22;20426;48.372;10.888;2024-01-30T01:35:27;2.20;99.90
34153;DHT22;20426;48.372;10.888;2024-01-30T01:35:58;2.20;99.90
34153;DHT22;20426;48.372;10.888;2024-01-30T01:36:29;2.10;99.90
34153;DHT22;20426;48.372;10.888;2024-01-30T01:36:59;2.10;99.90
34153;DHT22;20426;48.372;10.888;2024-01-30T01:37:30;2.10;99.90
34153;DHT22;20426;48.372;10.888;2024-01-30T01:38:01;2.10;99.90
34153;DHT22;20426;48.372;10.888;2024-01-30T01:38:33;2.10;99.90
34153;DHT22;20426;48.372;10.888;2024-01-30T01:39:03;2.10;99.90
34153;DHT22;20426;48.372;10.888;2024-01-30T01:39:34;2.10;99.90
34153;DHT22;20426;48.372;10.888;2024-01-30T01:40:05;2.10;99.90
34153;DHT22;20426;48.372;10.888;2024-01-30T01:40:36;2.10;99.90
34153;DHT22;20426;48.372;10.888;2024-01-30T01:41:10;2.00;99.90
34153;DHT22;20426;48.372;10.888;2024-01-30T01:41:41;2.00;99.90
34153;DHT22;20426;48.372;10.888;2024-01-30T01:42:12;2.00;99.90
34153;DHT22;20426;48.372;10.888;2024-01-30T01:42:42;2.00;99.90
34153;DHT22;20426;48.372;10.888;2024-01-30T01:43:13;2.00;99.90
34153;DHT22;20426;48.372;10.888;2024-01-30T01:43:44;2.00;99.90
34153;DHT22;20426;48.372;10.888;2024-01-30T01:44:15;2.00;99.90
34153;DHT22;20426;48.372;10.888;2024-01-30T01:44:45;2.00;99.90
34153;DHT22;20426;48.372;10.888;2024-01-30T01:45:16;1.90;99.90
34153;DHT22;20426;48.372;10.888;2024-01-30T01:45:47;1.90;99.90
34153;DHT22;20426;48.372;10.888;2024-01-30T01:46:18;1.90;99.90
34153;DHT22;20426;48.372;10.888;2024-01-30T01:46:48;1.90;99.90
34153;DHT22;20426;48.372;10.888;2024-01-30T01:47:19;1.90;99.90
34153;DHT22;20426;48.372;10.888;2024-01-30T01:47:51;2.00;99.90
34153;DHT22;20426;48.372;10.888;2024-01-30T01:48:22;2.00;99.90
34153;DHT22;20426;48.372;10.888;2024-01-30T01:48:53;2.00;99.90
34153;DHT22;20426;48.372;10.888;2024-01-30T01:49:27;2.00;99.90
34153;DHT22;20426;48.372;10.888;2024-01-30T01:49:58;2.00;99.90
34153;DHT22;20426;48.372;10.888;2024-01-30T01:50:29;2.00;99.90
34153;DHT22;20426;48.372;10.888;2024-01-30T01:51:00;2.00;99.90
34153;DHT22;20426;48.372;10.888;2024-01-30T01:51:34;2.00;99.90
34153;DHT22;20426;48.372;10.888;2024-01-30T01:52:06;2.00;99.90
34153;DHT22;20426;48.372;10.888;2024-01-30T01:52:39;2.00;99.90
34153;DHT22;20426;48.372;10.888;2024-01-30T01:53:10;2.00;99.90
34153;DHT22;20426;48.372;10.888;2024-01-30T01:53:42;2.00;99.90
34153;DHT22;20426;48.372;10.888;2024-01-30T01:54:14;2.00;99.90
34153;DHT22;20426;48.372;10.888;2024-01-30T01:54:46;2.00;99.90
34153;DHT22;20426;48.372;10.888;2024-01-30T01:55:19;2.00;99.90
34153;DHT22;20426;48.372;10.888;2024-01-30T01:55:55;2.00;99.90
34153;DHT22;20426;48.372;10.888;2024-01-30T01:56:27;2.00;99.90
34153;DHT22;20426;48.372;10.888;2024-01-30T01:56:59;2.00;99.90
34153;DHT22;20426;48.372;10.888;2024-01-30T01:57:30;2.00;99.90
34153;DHT22;20426;48.372;10.888;2024-01-30T01:58:01;2.00;99.90
34153;DHT22;20426;48.372;10.888;2024-01-30T01:58:32;2.10;99.90
34153;DHT22;20426;48.372;10.888;2024-01-30T01:59:07;2.10;99.90
34153;DHT22;20426;48.372;10.888;2024-01-30T01:59:38;2.10;99.90
34153;DHT22;20426;48.372;10.888;2024-01-30T02:00:10;2.10;99.90
34153;DHT22;20426;48.372;10.888;2024-01-30T02:00:40;2.10;99.90
34153;DHT22;20426;48.372;10.888;2024-01-30T02:01:13;2.10;99.90
34153;DHT22;20426;48.372;10.888;2024-01-30T02:01:44;2.20;99.90
34153;DHT22;20426;48.372;10.888;2024-01-30T02:02:17;2.20;99.90
34153;DHT22;20426;48.372;10.888;2024-01-30T02:02:49;2.20;99.90
34153;DHT22;20426;48.372;10.888;2024-01-30T02:03:21;2.20;99.90
34153;DHT22;20426;48.372;10.888;2024-01-30T02:03:51;2.20;99.90
34153;DHT22;20426;48.372;10.888;2024-01-30T02:04:22;2.20;99.90
34153;DHT22;20426;48.372;10.888;2024-01-30T02:04:53;2.20;99.90
34153;DHT22;20426;48.372;10.888;2024-01-30T02:05:24;2.20;99.90
34153;DHT22;20426;48.372;10.888;2024-01-30T02:05:56;2.30;99.90
34153;DHT22;20426;48.372;10.888;2024-01-30T02:06:27;2.30;99.90
34153;DHT22;20426;48.372;10.888;2024-01-30T02:06:58;2.30;99.90
34153;DHT22;20426;48.372;10.888;2024-01-30T02:07:28;2.30;99.90
34153;DHT22;20426;48.372;10.888;2024-01-30T02:07:59;2.30;99.90
34153;DHT22;20426;48.372;10.888;2024-01-30T02:08:30;2.30;99.90
34153;DHT22;20426;48.372;10.888;2024-01-30T02:09:01;2.30;99.90
34153;DHT22;20426;48.372;10.888;2024-01-30T02:09:32;2.30;99.90
34153;DHT22;20426;48.372;10.888;2024-01-30T02:10:03;2.30;99.90
34153;DHT22;20426;48.372;10.888;2024-01-30T02:10:34;2.20;99.90
34153;DHT22;20426;48.372;10.888;2024-01-30T02:11:05;2.20;99.90
34153;DHT22;20426;48.372;10.888;2024-01-30T02:11:36;2.20;99.90
34153;DHT22;20426;48.372;10.888;2024-01-30T02:12:06;2.20;99.90
34153;DHT22;20426;48.372;10.888;2024-01-30T02:12:37;2.20;99.90
34153;DHT22;20426;48.372;10.888;2024-01-30T02:13:08;2.20;99.90
34153;DHT22;20426;48.372;10.888;2024-01-30T02:13:38;2.20;99.90
34153;DHT22;20426;48.372;10.888;2024-01-30T02:14:09;2.20;99.90
34153;DHT22;20426;48.372;10.888;2024-01-30T02:14:46;2.20;99.90
34153;DHT22;20426;48.372;10.888;2024-01-30T02:15:17;2.20;99.90
34153;DHT22;20426;48.372;10.888;2024-01-30T02:15:51;2.20;99.90
34153;DHT22;20426;48.372;10.888;2024-01-30T02:16:22;2.20;99.90
34153;DHT22;20426;48.372;10.888;2024-01-30T02:16:53;2.20;99.90
34153;DHT22;20426;48.372;10.888;2024-01-30T02:17:23;2.20;99.90
34153;DHT22;20426;48.372;10.888;2024-01-30T02:17:54;2.20;99.90
34153;DHT22;20426;48.372;10.888;2024-01-30T02:18:25;2.20;99.90
34153;DHT22;20426;48.372;10.888;2024-01-30T02:18:55;2.20;99.90
34153;DHT22;20426;48.372;10.888;2024-01-30T02:19:26;2.20;99.90
34153;DHT22;20426;48.372;10.888;2024-01-30T02:19:57;2.20;99.90
34153;DHT22;20426;48.372;10.888;2024-01-30T02:20:30;2.10;99.90
34153;DHT22;20426;48.372;10.888;2024-01-30T02:21:04;2.10;99.90
34153;DHT22;20426;48.372;10.888;2024-01-30T02:21:35;2.10;99.90
34153;DHT22;20426;48.372;10.888;2024-01-30T02:22:06;2.10;99.90
34153;DHT22;20426;48.372;10.888;2024-01-30T02:22:37;2.10;99.90
34153;DHT22;20426;48.372;10.888;2024-01-30T02:23:10;2.10;99.90
34153;DHT22;20426;48.372;10.888;2024-01-30T02:23:43;2.10;99.90
34153;DHT22;20426;48.372;10.888;2024-01-30T02:24:15;2.10;99.90
34153;DHT22;20426;48.372;10.888;2024-01-30T02:24:45;2.10;99.90
34153;DHT22;20426;48.372;10.888;2024-01-30T02:25:16;2.10;99.90
34153;DHT22;20426;48.372;10.888;2024-01-30T02:25:47;2.20;99.90
34153;DHT22;20426;48.372;10.888;2024-01-30T02:26:17;2.20;99.90
34153;DHT22;20426;48.372;10.888;2024-01-30T02:26:48;2.20;99.90
34153;DHT22;20426;48.372;10.888;2024-01-30T02:27:19;2.20;99.90
34153;DHT22;20426;48.372;10.888;2024-01-30T02:27:49;2.20;99.90
34153;DHT22;20426;48.372;10.888;2024-01-30T02:28:20;2.20;99.90
34153;DHT22;20426;48.372;10.888;2024-01-30T02:28:51;2.20;99.90
34153;DHT22;20426;48.372;10.888;2024-01-30T02:29:21;2.20;99.90
34153;DHT22;20426;48.372;10.888;2024-01-30T02:29:52;2.20;99.90
34153;DHT22;20426;48.372;10.888;2024-01-30T02:30:23;2.20;99.90
34153;DHT22;20426;48.372;10.888;2024-01-30T02:30:53;2.20;99.90
34153;DHT22;20426;48.372;10.888;2024-01-30T02:31:25;2.20;99.90
34153;DHT22;20426;48.372;10.888;2024-01-30T02:31:56;2.20;99.90
34153;DHT22;20426;48.372;10.888;2024-01-30T02:32:27;2.20;99.90
34153;DHT22;20426;48.372;10.888;2024-01-30T02:32:57;2.20;99.90
34153;DHT22;20426;48.372;10.888;2024-01-30T02:33:28;2.20;99.90
34153;DHT22;20426;48.372;10.888;2024-01-30T02:33:59;2.10;99.90
34153;DHT22;20426;48.372;10.888;2024-01-30T02:34:29;2.10;99.90
34153;DHT22;20426;48.372;10.888;2024-01-30T02:35:00;2.10;99.90
34153;DHT22;20426;48.372;10.888;2024-01-30T02:35:31;2.10;99.90
34153;DHT22;20426;48.372;10.888;2024-01-30T02:36:02;2.10;99.90
34153;DHT22;20426;48.372;10.888;2024-01-30T02:36:33;2.10;99.90
34153;DHT22;20426;48.372;10.888;2024-01-30T02:37:03;2.20;99.90
34153;DHT22;20426;48.372;10.888;2024-01-30T02:37:34;2.20;99.90
34153;DHT22;20426;48.372;10.888;2024-01-30T02:38:05;2.20;99.90
34153;DHT22;20426;48.372;10.888;2024-01-30T02:38:36;2.20;99.90
34153;DHT22;20426;48.372;10.888;2024-01-30T02:39:06;2.20;99.90
34153;DHT22;20426;48.372;10.888;2024-01-30T02:39:37;2.20;99.90
34153;DHT22;20426;48.372;10.888;2024-01-30T02:40:08;2.20;99.90
34153;DHT22;20426;48.372;10.888;2024-01-30T02:40:38;2.20;99.90
34153;DHT22;20426;48.372;10.888;2024-01-30T02:41:09;2.20;99.90
34153;DHT22;20426;48.372;10.888;2024-01-30T02:41:40;2.30;99.90
34153;DHT22;20426;48.372;10.888;2024-01-30T02:42:10;2.30;99.90
34153;DHT22;20426;48.372;10.888;2024-01-30T02:42:41;2.30;99.90
34153;DHT22;20426;48.372;10.888;2024-01-30T02:43:12;2.30;99.90
34153;DHT22;20426;48.372;10.888;2024-01-30T02:43:42;2.30;99.90
34153;DHT22;20426;48.372;10.888;2024-01-30T02:44:13;2.30;99.90
34153;DHT22;20426;48.372;10.888;2024-01-30T02:44:44;2.30;99.90
34153;DHT22;20426;48.372;10.888;2024-01-30T02:45:15;2.30;99.90
34153;DHT22;20426;48.372;10.888;2024-01-30T02:45:45;2.30;99.90
34153;DHT22;20426;48.372;10.888;2024-01-30T02:46:16;2.30;99.90
34153;DHT22;20426;48.372;10.888;2024-01-30T02:46:47;2.30;99.90
34153;DHT22;20426;48.372;10.888;2024-01-30T02:47:17;2.30;99.90
34153;DHT22;20426;48.372;10.888;2024-01-30T02:47:48;2.30;99.90
34153;DHT22;20426;48.372;10.888;2024-01-30T02:48:19;2.30;99.90
34153;DHT22;20426;48.372;10.888;2024-01-30T02:48:49;2.30;99.90
34153;DHT22;20426;48.372;10.888;2024-01-30T02:49:20;2.30;99.90
34153;DHT22;20426;48.372;10.888;2024-01-30T02:49:51;2.30;99.90
34153;DHT22;20426;48.372;10.888;2024-01-30T02:50:22;2.30;99.90
34153;DHT22;20426;48.372;10.888;2024-01-30T02:50:53;2.30;99.90
34153;DHT22;20426;48.372;10.888;2024-01-30T02:51:23;2.30;99.90
34153;DHT22;20426;48.372;10.888;2024-01-30T02:51:54;2.30;99.90
34153;DHT22;20426;48.372;10.888;2024-01-30T02:52:26;2.30;99.90
34153;DHT22;20426;48.372;10.888;2024-01-30T02:52:57;2.30;99.90
34153;DHT22;20426;48.372;10.888;2024-01-30T02:53:28;2.30;99.90
34153;DHT22;20426;48.372;10.888;2024-01-30T02:53:58;2.30;99.90
34153;DHT22;20426;48.372;10.888;2024-01-30T02:54:29;2.30;99.90
34153;DHT22;20426;48.372;10.888;2024-01-30T02:55:01;2.30;99.90
34153;DHT22;20426;48.372;10.888;2024-01-30T02:55:33;2.30;99.90
34153;DHT22;20426;48.372;10.888;2024-01-30T02:56:04;2.30;99.90
34153;DHT22;20426;48.372;10.888;2024-01-30T02:56:36;2.30;99.90
34153;DHT22;20426;48.372;10.888;2024-01-30T02:57:06;2.30;99.90
34153;DHT22;20426;48.372;10.888;2024-01-30T02:57:38;2.30;99.90
34153;DHT22;20426;48.372;10.888;2024-01-30T02:58:08;2.30;99.90
34153;DHT22;20426;48.372;10.888;2024-01-30T02:58:40;2.30;99.90
34153;DHT22;20426;48.372;10.888;2024-01-30T02:59:10;2.30;99.90
34153;DHT22;20426;48.372;10.888;2024-01-30T02:59:41;2.20;99.90
34153;DHT22;20426;48.372;10.888;2024-01-30T03:00:12;2.20;99.90
34153;DHT22;20426;48.372;10.888;2024-01-30T03:00:43;2.20;99.90
34153;DHT22;20426;48.372;10.888;2024-01-30T03:01:14;2.20;99.90
34153;DHT22;20426;48.372;10.888;2024-01-30T03:01:45;2.20;99.90
34153;DHT22;20426;48.372;10.888;2024-01-30T03:02:16;2.20;99.90
34153;DHT22;20426;48.372;10.888;2024-01-30T03:02:47;2.20;99.90
34153;DHT22;20426;48.372;10.888;2024-01-30T03:03:18;2.20;99.90
34153;DHT22;20426;48.372;10.888;2024-01-30T03:03:48;2.20;99.90
34153;DHT22;20426;48.372;10.888;2024-01-30T03:04:19;2.20;99.90
34153;DHT22;20426;48.372;10.888;2024-01-30T03:04:50;2.10;99.90
34153;DHT22;20426;48.372;10.888;2024-01-30T03:05:20;2.10;99.90
34153;DHT22;20426;48.372;10.888;2024-01-30T03:05:51;2.10;99.90
34153;DHT22;20426;48.372;10.888;2024-01-30T03:06:22;2.10;99.90
34153;DHT22;20426;48.372;10.888;2024-01-30T03:06:53;2.10;99.90
34153;DHT22;20426;48.372;10.888;2024-01-30T03:07:24;2.10;99.90
34153;DHT22;20426;48.372;10.888;2024-01-30T03:07:54;2.10;99.90
34153;DHT22;20426;48.372;10.888;2024-01-30T03:08:25;2.10;99.90
34153;DHT22;20426;48.372;10.888;2024-01-30T03:08:56;2.10;99.90
34153;DHT22;20426;48.372;10.888;2024-01-30T03:09:26;2.00;99.90
34153;DHT22;20426;48.372;10.888;2024-01-30T03:09:57;2.00;99.90
34153;DHT22;20426;48.372;10.888;2024-01-30T03:10:28;2.00;99.90
34153;DHT22;20426;48.372;10.888;2024-01-30T03:10:58;2.00;99.90
34153;DHT22;20426;48.372;10.888;2024-01-30T03:11:29;2.00;99.90
34153;DHT22;20426;48.372;10.888;2024-01-30T03:11:59;2.00;99.90
34153;DHT22;20426;48.372;10.888;2024-01-30T03:12:31;2.00;99.90
34153;DHT22;20426;48.372;10.888;2024-01-30T03:13:02;2.10;99.90
34153;DHT22;20426;48.372;10.888;2024-01-30T03:13:33;2.00;99.90
34153;DHT22;20426;48.372;10.888;2024-01-30T03:14:03;2.10;99.90
34153;DHT22;20426;48.372;10.888;2024-01-30T03:14:35;2.10;99.90
34153;DHT22;20426;48.372;10.888;2024-01-30T03:15:06;2.10;99.90
34153;DHT22;20426;48.372;10.888;2024-01-30T03:15:36;2.00;99.90
34153;DHT22;20426;48.372;10.888;2024-01-30T03:16:08;2.10;99.90